createdAt,value
2019-03-19T00:00:12.863Z,4.01
2019-03-19T00:02:41.398Z,3.99
2019-03-19T00:05:09.900Z,3.95
2019-03-19T00:07:38.520Z,3.90
2019-03-19T00:10:09.085Z,3.87
2019-03-19T00:12:37.530Z,3.84
2019-03-19T00:15:08.428Z,3.82
2019-03-19T00:17:36.855Z,3.82
2019-03-19T00:20:11.274Z,3.82
2019-03-19T00:22:40.021Z,3.81
2019-03-19T00:25:09.181Z,3.81
2019-03-19T00:27:37.668Z,3.81
2019-03-19T00:30:12.395Z,3.80
2019-03-19T00:32:40.836Z,3.76
2019-03-19T00:35:09.271Z,3.72
2019-03-19T00:37:39.227Z,3.70
2019-03-19T00:40:12.378Z,3.67
2019-03-19T00:42:51.374Z,3.66
2019-03-19T00:45:19.801Z,3.64
2019-03-19T00:47:48.337Z,3.59
2019-03-19T00:50:17.094Z,3.56
2019-03-19T00:52:45.521Z,3.51
2019-03-19T00:55:14.300Z,3.48
2019-03-19T00:57:43.244Z,3.45
2019-03-19T01:00:19.094Z,3.42
2019-03-19T01:02:47.806Z,3.41
2019-03-19T01:05:16.264Z,3.39
2019-03-19T01:07:44.825Z,3.37
2019-03-19T01:10:17.489Z,3.34
2019-03-19T01:12:44.878Z,3.32
2019-03-19T01:15:14.732Z,3.31
2019-03-19T01:17:43.166Z,3.28
2019-03-19T01:20:18.307Z,3.25
2019-03-19T01:22:46.747Z,3.22
2019-03-19T01:25:15.185Z,3.20
2019-03-19T01:27:43.757Z,3.16
2019-03-19T01:30:13.716Z,3.14
2019-03-19T01:32:42.229Z,3.13
2019-03-19T01:35:10.790Z,3.15
2019-03-19T01:37:39.438Z,3.15
2019-03-19T01:40:10.456Z,3.17
2019-03-19T01:42:39.167Z,3.16
2019-03-19T01:45:10.038Z,3.16
2019-03-19T01:47:38.768Z,3.16
2019-03-19T01:50:10.196Z,3.16
2019-03-19T01:52:38.677Z,3.16
2019-03-19T01:55:10.482Z,3.17
2019-03-19T01:57:38.943Z,3.18
2019-03-19T02:00:10.914Z,3.20
2019-03-19T02:02:39.487Z,3.23
2019-03-19T02:05:08.127Z,3.26
2019-03-19T02:07:36.554Z,3.30
2019-03-19T02:10:07.920Z,3.31
2019-03-19T02:12:36.486Z,3.33
2019-03-19T02:15:07.287Z,3.32
2019-03-19T02:17:35.887Z,3.30
2019-03-19T02:20:06.190Z,3.28
2019-03-19T02:22:34.608Z,3.27
2019-03-19T02:25:03.301Z,3.29
2019-03-19T02:27:32.927Z,3.33
2019-03-19T02:30:01.342Z,3.37
2019-03-19T02:32:29.787Z,3.43
2019-03-19T02:34:58.353Z,3.48
2019-03-19T02:37:26.810Z,3.53
2019-03-19T02:39:55.239Z,3.59
2019-03-19T02:42:23.710Z,3.62
2019-03-19T02:44:52.218Z,3.66
2019-03-19T02:47:24.799Z,3.69
2019-03-19T02:49:53.751Z,3.72
2019-03-19T02:52:22.238Z,3.75
2019-03-19T02:54:50.665Z,3.79
2019-03-19T02:57:19.122Z,3.83
2019-03-19T02:59:47.550Z,3.84
2019-03-19T03:02:15.992Z,3.81
2019-03-19T03:04:44.443Z,3.78
2019-03-19T03:07:12.887Z,3.74
2019-03-19T03:09:41.852Z,3.72
2019-03-19T03:12:10.359Z,3.67
2019-03-19T03:14:38.758Z,3.66
2019-03-19T03:17:07.197Z,3.67
2019-03-19T03:19:35.720Z,3.71
2019-03-19T03:22:04.254Z,3.76
2019-03-19T03:24:32.666Z,3.80
2019-03-19T03:27:02.434Z,3.84
2019-03-19T03:29:31.136Z,3.88
2019-03-19T03:31:59.630Z,3.90
2019-03-19T03:34:28.468Z,3.92
2019-03-19T03:36:56.882Z,3.89
2019-03-19T03:39:25.315Z,3.87
2019-03-19T03:41:53.796Z,3.86
2019-03-19T03:44:22.231Z,3.84
2019-03-19T03:46:50.659Z,3.84
2019-03-19T03:49:19.450Z,3.83
2019-03-19T03:51:47.927Z,3.83
2019-03-19T03:54:16.704Z,3.84
2019-03-19T03:56:45.651Z,3.85
2019-03-19T03:59:14.066Z,3.86
2019-03-19T04:01:42.521Z,3.89
2019-03-19T04:04:10.971Z,3.91
2019-03-19T04:06:39.530Z,3.92
2019-03-19T04:09:09.400Z,3.94
2019-03-19T04:11:38.213Z,3.95
2019-03-19T04:14:06.647Z,3.97
2019-03-19T04:16:35.084Z,3.96
2019-03-19T04:19:03.994Z,3.95
2019-03-19T04:21:32.457Z,3.93
2019-03-19T04:24:00.932Z,3.91
2019-03-19T04:26:29.449Z,3.89
2019-03-19T04:28:57.904Z,3.88
2019-03-19T04:31:26.345Z,3.85
2019-03-19T04:33:54.872Z,3.79
2019-03-19T04:36:23.304Z,3.73
2019-03-19T04:38:51.748Z,3.66
2019-03-19T04:41:20.353Z,3.58
2019-03-19T04:43:48.972Z,3.52
2019-03-19T04:46:17.412Z,3.48
2019-03-19T04:48:45.852Z,3.49
2019-03-19T04:51:14.281Z,3.46
2019-03-19T04:53:42.702Z,3.44
2019-03-19T04:56:11.151Z,3.42
2019-03-19T04:58:39.617Z,3.43
2019-03-19T05:01:08.048Z,3.43
2019-03-19T05:03:36.523Z,3.43
2019-03-19T05:06:05.361Z,3.44
2019-03-19T05:08:33.800Z,3.45
2019-03-19T05:11:02.336Z,3.45
2019-03-19T05:13:30.785Z,3.47
2019-03-19T05:15:59.207Z,3.47
2019-03-19T05:18:28.006Z,3.47
2019-03-19T05:20:56.604Z,3.48
2019-03-19T05:23:25.041Z,3.51
2019-03-19T05:25:53.826Z,3.54
2019-03-19T05:28:22.449Z,3.60
2019-03-19T05:30:50.871Z,3.65
2019-03-19T05:33:19.609Z,3.69
2019-03-19T05:35:49.636Z,3.72
2019-03-19T05:38:18.061Z,3.77
2019-03-19T05:40:46.520Z,3.81
2019-03-19T05:43:14.945Z,3.83
2019-03-19T05:45:43.382Z,3.84
2019-03-19T05:48:11.868Z,3.85
2019-03-19T05:50:40.460Z,3.84
2019-03-19T05:53:09.108Z,3.85
2019-03-19T05:55:37.651Z,3.87
2019-03-19T05:58:06.069Z,3.87
2019-03-19T06:00:36.149Z,3.91
2019-03-19T06:03:04.892Z,3.94
2019-03-19T06:05:33.316Z,3.97
2019-03-19T06:08:01.741Z,4.01
2019-03-19T06:10:30.575Z,4.04
2019-03-19T06:12:59.012Z,4.09
2019-03-19T06:15:27.497Z,4.10
2019-03-19T06:17:55.961Z,4.13
2019-03-19T06:20:24.385Z,4.17
2019-03-19T06:22:52.809Z,4.20
2019-03-19T06:25:21.277Z,4.22
2019-03-19T06:27:59.892Z,4.24
2019-03-19T06:30:21.053Z,4.25
2019-03-19T06:32:49.512Z,4.25
2019-03-19T06:35:18.224Z,4.23
2019-03-19T06:37:46.758Z,4.20
2019-03-19T06:40:19.715Z,4.18
2019-03-19T06:42:49.081Z,4.16
2019-03-19T06:45:18.414Z,4.16
2019-03-19T06:47:47.061Z,4.17
2019-03-19T06:50:16.430Z,4.17
2019-03-19T06:52:44.990Z,4.17
2019-03-19T06:55:14.378Z,4.18
2019-03-19T06:57:42.978Z,4.21
2019-03-19T07:00:22.580Z,4.24
2019-03-19T07:02:51.087Z,4.27
2019-03-19T07:05:20.667Z,4.35
2019-03-19T07:07:49.632Z,4.42
2019-03-19T07:10:18.991Z,4.54
2019-03-19T07:12:47.503Z,4.68
2019-03-19T07:15:17.047Z,4.81
2019-03-19T07:17:45.551Z,4.90
2019-03-19T07:20:19.025Z,4.97
2019-03-19T07:22:47.739Z,5.09
2019-03-19T07:25:16.240Z,5.24
2019-03-19T07:27:44.739Z,5.39
2019-03-19T07:30:18.199Z,5.49
2019-03-19T07:32:46.621Z,5.56
2019-03-19T07:35:15.054Z,5.62
2019-03-19T07:37:43.529Z,5.68
2019-03-19T07:40:16.808Z,5.76
2019-03-19T07:42:45.229Z,5.82
2019-03-19T07:45:18.960Z,5.89
2019-03-19T07:47:47.399Z,5.92
2019-03-19T07:50:20.284Z,5.90
2019-03-19T07:52:48.762Z,5.88
2019-03-19T07:55:17.189Z,5.85
2019-03-19T07:57:45.791Z,5.84
2019-03-19T08:00:25.209Z,5.84
2019-03-19T08:02:53.645Z,5.90
2019-03-19T08:05:32.565Z,5.95
2019-03-19T08:07:52.570Z,6.01
2019-03-19T08:10:20.992Z,6.08
2019-03-19T08:12:49.487Z,6.14
2019-03-19T08:15:20.217Z,6.20
2019-03-19T08:17:48.655Z,6.26
2019-03-19T08:20:18.121Z,6.36
2019-03-19T08:22:46.873Z,6.43
2019-03-19T08:25:18.735Z,6.51
2019-03-19T08:27:47.238Z,6.57
2019-03-19T08:30:17.352Z,6.64
2019-03-19T08:32:45.874Z,6.75
2019-03-19T08:35:14.308Z,6.84
2019-03-19T08:37:42.888Z,6.90
2019-03-19T08:40:13.473Z,6.91
2019-03-19T08:42:41.894Z,6.90
2019-03-19T08:45:12.802Z,6.89
2019-03-19T08:47:41.471Z,6.89
2019-03-19T08:50:18.227Z,6.95
2019-03-19T08:52:46.652Z,7.09
2019-03-19T08:55:15.098Z,7.20
2019-03-19T08:57:43.542Z,7.26
2019-03-19T09:00:23.210Z,7.30
2019-03-19T09:02:51.637Z,7.32
2019-03-19T09:05:20.066Z,7.35
2019-03-19T09:07:48.548Z,7.39
2019-03-19T09:10:20.828Z,7.46
2019-03-19T09:12:49.671Z,7.58
2019-03-19T09:15:19.579Z,7.70
2019-03-19T09:17:48.026Z,7.76
2019-03-19T09:20:19.404Z,7.73
2019-03-19T09:22:47.875Z,7.70
2019-03-19T09:25:16.540Z,7.72
2019-03-19T09:27:45.023Z,7.75
2019-03-19T09:30:16.187Z,7.83
2019-03-19T09:32:44.869Z,7.93
2019-03-19T09:35:13.897Z,7.96
2019-03-19T09:37:44.754Z,7.91
2019-03-19T09:40:22.936Z,7.85
2019-03-19T09:42:51.730Z,7.84
2019-03-19T09:45:20.192Z,7.87
2019-03-19T09:47:48.617Z,7.93
2019-03-19T09:50:22.305Z,7.98
2019-03-19T09:52:50.810Z,8.05
2019-03-19T09:55:19.659Z,8.10
2019-03-19T09:57:48.179Z,8.20
2019-03-19T10:00:23.826Z,8.27
2019-03-19T10:02:52.328Z,8.24
2019-03-19T10:05:20.753Z,8.19
2019-03-19T10:07:49.285Z,8.15
2019-03-19T10:10:22.417Z,8.19
2019-03-19T10:12:50.874Z,8.23
2019-03-19T10:15:19.704Z,8.25
2019-03-19T10:17:48.484Z,8.21
2019-03-19T10:20:21.871Z,8.15
2019-03-19T10:22:50.591Z,8.07
2019-03-19T10:25:19.099Z,8.02
2019-03-19T10:27:47.771Z,8.03
2019-03-19T10:30:24.115Z,8.10
2019-03-19T10:32:52.532Z,8.28
2019-03-19T10:35:20.965Z,8.57
2019-03-19T10:37:49.441Z,8.81
2019-03-19T10:40:19.866Z,8.88
2019-03-19T10:42:48.625Z,8.86
2019-03-19T10:45:24.951Z,8.81
2019-03-19T10:47:53.367Z,8.79
2019-03-19T10:50:28.319Z,8.84
2019-03-19T10:52:56.893Z,8.96
2019-03-19T10:55:25.316Z,9.10
2019-03-19T10:57:53.879Z,9.16
2019-03-19T11:00:26.082Z,9.10
2019-03-19T11:02:54.858Z,8.94
2019-03-19T11:05:26.489Z,8.75
2019-03-19T11:07:55.051Z,8.55
2019-03-19T11:10:23.919Z,8.45
2019-03-19T11:12:52.340Z,8.55
2019-03-19T11:15:21.956Z,8.77
2019-03-19T11:17:50.404Z,8.88
2019-03-19T11:20:20.715Z,8.86
2019-03-19T11:22:49.833Z,8.76
2019-03-19T11:25:28.265Z,8.63
2019-03-19T11:27:56.977Z,8.64
2019-03-19T11:30:28.311Z,8.83
2019-03-19T11:32:56.801Z,9.14
2019-03-19T11:35:25.653Z,9.45
2019-03-19T11:37:54.076Z,9.58
2019-03-19T11:40:25.461Z,9.56
2019-03-19T11:42:53.216Z,9.44
2019-03-19T11:45:23.041Z,9.27
2019-03-19T11:47:51.652Z,9.08
2019-03-19T11:50:30.173Z,8.91
2019-03-19T11:52:58.679Z,8.83
2019-03-19T11:55:27.132Z,8.92
2019-03-19T11:57:57.609Z,9.18
2019-03-19T12:00:34.826Z,9.50
2019-03-19T12:03:13.769Z,9.69
2019-03-19T12:05:33.874Z,9.77
2019-03-19T12:08:02.311Z,9.70
2019-03-19T12:10:30.852Z,9.54
2019-03-19T12:12:59.324Z,9.37
2019-03-19T12:15:27.753Z,9.30
2019-03-19T12:17:57.530Z,9.32
2019-03-19T12:20:25.976Z,9.37
2019-03-19T12:22:54.654Z,9.48
2019-03-19T12:25:24.240Z,9.54
2019-03-19T12:27:52.723Z,9.57
2019-03-19T12:30:25.988Z,9.54
2019-03-19T12:32:52.723Z,9.44
2019-03-19T12:35:21.488Z,9.40
2019-03-19T12:37:49.931Z,9.36
2019-03-19T12:40:21.232Z,9.45
2019-03-19T12:42:49.841Z,9.56
2019-03-19T12:45:22.153Z,9.58
2019-03-19T12:47:50.644Z,9.57
2019-03-19T12:50:20.123Z,9.56
2019-03-19T12:52:48.643Z,9.57
2019-03-19T12:55:17.125Z,9.49
2019-03-19T12:57:45.822Z,9.36
2019-03-19T13:00:16.586Z,9.24
2019-03-19T13:02:45.081Z,9.18
2019-03-19T13:05:13.568Z,9.21
2019-03-19T13:07:42.090Z,9.24
2019-03-19T13:10:13.860Z,9.27
2019-03-19T13:12:42.293Z,9.18
2019-03-19T13:15:12.758Z,9.08
2019-03-19T13:17:41.368Z,8.98
2019-03-19T13:20:14.435Z,8.91
2019-03-19T13:22:42.853Z,9.16
2019-03-19T13:25:13.888Z,9.46
2019-03-19T13:27:43.557Z,9.59
2019-03-19T13:30:17.473Z,9.58
2019-03-19T13:32:45.977Z,9.55
2019-03-19T13:35:14.576Z,9.53
2019-03-19T13:37:43.177Z,9.52
2019-03-19T13:40:18.786Z,9.50
2019-03-19T13:42:47.210Z,9.48
2019-03-19T13:45:20.768Z,9.51
2019-03-19T13:47:49.399Z,9.51
2019-03-19T13:50:22.383Z,9.49
2019-03-19T13:52:50.850Z,9.45
2019-03-19T13:55:24.235Z,9.39
2019-03-19T13:57:52.674Z,9.54
2019-03-19T14:00:21.172Z,9.74
2019-03-19T14:02:49.870Z,9.75
2019-03-19T14:05:18.650Z,9.69
2019-03-19T14:07:47.394Z,9.90
2019-03-19T14:10:19.842Z,10.17
2019-03-19T14:12:48.817Z,10.33
2019-03-19T14:15:22.606Z,10.74
2019-03-19T14:17:51.418Z,10.99
2019-03-19T14:20:20.271Z,11.06
2019-03-19T14:22:48.700Z,11.07
2019-03-19T14:25:18.487Z,10.99
2019-03-19T14:30:26.369Z,11.23
2019-03-19T14:32:55.562Z,11.69
2019-03-19T14:35:24.759Z,12.23
2019-03-19T14:37:54.097Z,12.54
2019-03-19T14:40:23.764Z,12.73
2019-03-19T14:42:52.965Z,12.68
2019-03-19T14:45:22.180Z,12.67
2019-03-19T14:47:51.656Z,12.60
2019-03-19T14:50:23.129Z,12.70
2019-03-19T14:52:52.358Z,12.68
2019-03-19T14:55:21.693Z,12.85
2019-03-19T14:57:51.209Z,12.84
2019-03-19T15:00:25.559Z,12.99
2019-03-19T15:02:54.133Z,13.08
2019-03-19T15:05:22.561Z,12.97
2019-03-19T15:07:51.081Z,12.97
2019-03-19T15:10:21.653Z,12.90
2019-03-19T15:12:50.120Z,13.03
2019-03-19T15:15:20.559Z,13.19
2019-03-19T15:17:49.031Z,13.23
2019-03-19T15:20:25.052Z,13.20
2019-03-19T15:22:56.325Z,12.98
2019-03-19T15:25:25.333Z,12.89
2019-03-19T15:27:53.932Z,12.90
2019-03-19T15:30:22.450Z,12.99
2019-03-19T15:32:51.276Z,13.04
2019-03-19T15:35:19.968Z,13.08
2019-03-19T15:37:48.415Z,13.12
2019-03-19T15:40:18.779Z,13.10
2019-03-19T15:42:47.318Z,13.15
2019-03-19T15:45:19.949Z,13.17
2019-03-19T15:47:48.440Z,13.23
2019-03-19T15:50:17.342Z,13.15
2019-03-19T15:52:45.776Z,13.00
2019-03-19T15:55:14.713Z,13.02
2019-03-19T15:57:43.608Z,12.96
2019-03-19T16:00:16.938Z,12.96
2019-03-19T16:02:45.318Z,12.86
2019-03-19T16:05:14.949Z,12.72
2019-03-19T16:07:43.424Z,12.43
2019-03-19T16:10:13.872Z,12.36
2019-03-19T16:12:42.768Z,12.17
2019-03-19T16:15:16.857Z,12.08
2019-03-19T16:17:45.341Z,11.87
2019-03-19T16:20:23.077Z,11.59
2019-03-19T16:22:51.501Z,11.37
2019-03-19T16:25:20.289Z,11.16
2019-03-19T16:27:48.811Z,10.94
2019-03-19T16:30:20.574Z,10.79
2019-03-19T16:32:49.018Z,10.66
2019-03-19T16:35:17.551Z,10.45
2019-03-19T16:37:46.044Z,10.29
2019-03-19T16:40:17.528Z,10.24
2019-03-19T16:42:46.136Z,10.13
2019-03-19T16:45:14.637Z,9.94
2019-03-19T16:47:43.067Z,9.74
2019-03-19T16:50:19.347Z,9.53
2019-03-19T16:52:47.849Z,9.29
2019-03-19T16:55:17.117Z,9.03
2019-03-19T16:57:45.571Z,8.83
2019-03-19T17:00:16.243Z,8.64
2019-03-19T17:02:44.655Z,8.52
2019-03-19T17:05:13.943Z,8.48
2019-03-19T17:07:42.371Z,8.45
2019-03-19T17:10:13.586Z,8.36
2019-03-19T17:12:42.404Z,8.22
2019-03-19T17:15:13.279Z,8.06
2019-03-19T17:17:41.714Z,7.90
2019-03-19T17:20:14.641Z,7.76
2019-03-19T17:22:43.151Z,7.61
2019-03-19T17:25:17.323Z,7.46
2019-03-19T17:27:45.931Z,7.33
2019-03-19T17:30:27.955Z,7.21
2019-03-19T17:32:56.387Z,7.12
2019-03-19T17:35:24.807Z,7.02
2019-03-19T17:37:53.318Z,6.93
2019-03-19T17:40:21.836Z,6.85
2019-03-19T17:42:50.288Z,6.77
2019-03-19T17:45:18.715Z,6.70
2019-03-19T17:47:47.480Z,6.62
2019-03-19T17:50:27.492Z,6.57
2019-03-19T17:52:56.664Z,6.50
2019-03-19T17:55:25.262Z,6.42
2019-03-19T17:57:53.697Z,6.38
2019-03-19T18:00:23.890Z,6.31
2019-03-19T18:02:52.327Z,6.27
2019-03-19T18:05:20.751Z,6.21
2019-03-19T18:07:50.247Z,6.15
2019-03-19T18:10:19.955Z,6.08
2019-03-19T18:12:49.755Z,6.02
2019-03-19T18:15:19.258Z,5.99
2019-03-19T18:17:47.687Z,5.94
2019-03-19T18:20:16.774Z,5.89
2019-03-19T18:22:45.315Z,5.85
2019-03-19T18:25:15.949Z,5.79
2019-03-19T18:27:44.691Z,5.75
2019-03-19T18:30:21.832Z,5.71
2019-03-19T18:32:50.338Z,5.67
2019-03-19T18:35:18.859Z,5.62
2019-03-19T18:37:47.461Z,5.58
2019-03-19T18:40:19.330Z,5.54
2019-03-19T18:42:47.763Z,5.49
2019-03-19T18:45:18.128Z,5.44
2019-03-19T18:47:46.573Z,5.40
2019-03-19T18:50:17.432Z,5.35
2019-03-19T18:52:46.136Z,5.30
2019-03-19T18:55:14.563Z,5.26
2019-03-19T18:57:43.147Z,5.21
2019-03-19T19:00:17.477Z,5.17
2019-03-19T19:02:50.022Z,5.14
2019-03-19T19:05:16.996Z,5.09
2019-03-19T19:07:45.596Z,5.03
2019-03-19T19:10:20.739Z,4.99
2019-03-19T19:12:48.150Z,4.91
2019-03-19T19:15:17.865Z,4.81
2019-03-19T19:17:46.497Z,4.72
2019-03-19T19:20:15.672Z,4.64
2019-03-19T19:22:44.378Z,4.57
2019-03-19T19:25:14.644Z,4.49
2019-03-19T19:27:43.081Z,4.44
2019-03-19T19:30:26.163Z,4.39
2019-03-19T19:33:01.649Z,4.36
2019-03-19T19:35:26.080Z,4.30
2019-03-19T19:37:56.034Z,4.26
2019-03-19T19:40:26.765Z,4.21
2019-03-19T19:42:56.295Z,4.17
2019-03-19T19:45:27.091Z,4.15
2019-03-19T19:47:55.521Z,4.12
2019-03-19T19:50:24.119Z,4.09
2019-03-19T19:52:52.596Z,4.03
2019-03-19T19:55:21.020Z,3.99
2019-03-19T19:57:49.548Z,3.93
2019-03-19T20:00:21.590Z,3.88
2019-03-19T20:02:49.358Z,3.83
2019-03-19T20:05:19.175Z,3.78
2019-03-19T20:07:47.695Z,3.74
2019-03-19T20:10:18.234Z,3.70
2019-03-19T20:12:46.661Z,3.69
2019-03-19T20:15:15.158Z,3.69
2019-03-19T20:17:43.583Z,3.68
2019-03-19T20:20:22.737Z,3.67
2019-03-19T20:22:51.177Z,3.64
2019-03-19T20:25:19.600Z,3.63
2019-03-19T20:27:48.073Z,3.64
2019-03-19T20:30:20.401Z,3.66
2019-03-19T20:32:49.266Z,3.67
2019-03-19T20:35:17.703Z,3.65
2019-03-19T20:37:46.145Z,3.61
2019-03-19T20:40:15.487Z,3.59
2019-03-19T20:42:44.380Z,3.55
2019-03-19T20:45:18.064Z,3.54
2019-03-19T20:47:46.515Z,3.54
2019-03-19T20:50:23.945Z,3.51
2019-03-19T20:52:52.383Z,3.51
2019-03-19T20:55:20.806Z,3.50
2019-03-19T20:57:49.338Z,3.49
2019-03-19T21:00:18.521Z,3.50
2019-03-19T21:02:46.977Z,3.51
2019-03-19T21:05:15.626Z,3.49
2019-03-19T21:07:44.396Z,3.45
2019-03-19T21:10:19.796Z,3.43
2019-03-19T21:12:48.582Z,3.40
2019-03-19T21:15:30.262Z,3.38
2019-03-19T21:17:59.054Z,3.35
2019-03-19T21:20:27.564Z,3.34
2019-03-19T21:22:55.992Z,3.35
2019-03-19T21:25:24.463Z,3.33
2019-03-19T21:27:52.959Z,3.30
2019-03-19T21:30:22.759Z,3.26
2019-03-19T21:32:51.255Z,3.23
2019-03-19T21:35:20.652Z,3.21
2019-03-19T21:37:49.222Z,3.18
2019-03-19T21:40:17.745Z,3.13
2019-03-19T21:42:46.209Z,3.08
2019-03-19T21:45:16.289Z,3.06
2019-03-19T21:47:44.824Z,3.04
2019-03-19T21:50:21.237Z,3.05
2019-03-19T21:52:49.796Z,3.03
2019-03-19T21:55:18.228Z,3.01
2019-03-19T21:57:46.670Z,3.02
2019-03-19T22:00:24.052Z,3.00
2019-03-19T22:02:52.530Z,3.02
2019-03-19T22:05:20.964Z,3.05
2019-03-19T22:07:49.489Z,3.06
2019-03-19T22:10:20.358Z,3.07
2019-03-19T22:12:49.487Z,3.06
2019-03-19T22:15:19.435Z,3.04
2019-03-19T22:17:47.977Z,3.00
2019-03-19T22:20:16.571Z,3.00
2019-03-19T22:22:45.103Z,3.00
2019-03-19T22:25:14.563Z,3.00
2019-03-19T22:27:43.317Z,3.00
2019-03-19T22:30:21.099Z,3.01
2019-03-19T22:32:49.524Z,3.01
2019-03-19T22:35:17.943Z,3.02
2019-03-19T22:37:46.469Z,3.03
2019-03-19T22:40:18.215Z,3.05
2019-03-19T22:42:46.891Z,3.05
2019-03-19T22:45:16.607Z,3.07
2019-03-19T22:47:45.288Z,3.07
2019-03-19T22:50:18.427Z,3.08
2019-03-19T22:52:47.353Z,3.08
2019-03-19T22:55:16.244Z,3.09
2019-03-19T22:57:44.798Z,3.10
2019-03-19T23:00:20.347Z,3.12
2019-03-19T23:02:48.841Z,3.16
2019-03-19T23:05:17.264Z,3.17
2019-03-19T23:07:45.726Z,3.15
2019-03-19T23:10:14.289Z,3.16
2019-03-19T23:12:43.153Z,3.13
2019-03-19T23:15:12.814Z,3.10
2019-03-19T23:17:41.241Z,3.08
2019-03-19T23:20:12.244Z,3.07
2019-03-19T23:22:40.847Z,3.05
2019-03-19T23:25:09.410Z,3.02
2019-03-19T23:27:37.838Z,2.99
2019-03-19T23:30:23.188Z,2.97
2019-03-19T23:32:51.616Z,2.95
2019-03-19T23:35:20.043Z,2.93
2019-03-19T23:37:48.507Z,2.92
2019-03-19T23:40:17.881Z,2.89
2019-03-19T23:42:46.301Z,2.85
2019-03-19T23:45:14.851Z,2.84
2019-03-19T23:47:43.275Z,2.82
2019-03-19T23:50:16.680Z,2.80
2019-03-19T23:52:45.941Z,2.79
2019-03-19T23:55:14.374Z,2.78
2019-03-19T23:57:42.803Z,2.75
